Time;durP1;ratioP1;P1;durP2;ratioP2;P2;SDS_P1;SDS_P2;PMS_P1;PMS_P2;Temp;Humidity;BMP_temperature;BMP_pressure;BME280_temperature;BME280_humidity;BME280_pressure;Samples;Min_cycle;Max_cycle;Signal;HPM_P1;HPM_P2
2021/07/03 00:01:51;;;;;;;30.70;26.30;;;;;;;;;;5033291;28;20453;-58
2021/07/03 00:04:18;;;;;;;27.50;24.23;;;;;;;;;;5033856;28;20437;-58
2021/07/03 00:06:45;;;;;;;26.70;23.30;;;;;;;;;;5033777;28;20441;-58
2021/07/03 00:09:13;;;;;;;28.63;25.10;;;;;;;;;;5033296;28;20474;-58
2021/07/03 00:11:42;;;;;;;26.10;23.30;;;;;;;;;;5033131;28;20456;-58
2021/07/03 00:14:09;;;;;;;25.97;23.27;;;;;;;;;;5032781;28;20527;-58
2021/07/03 00:16:36;;;;;;;27.80;24.60;;;;;;;;;;5033391;28;20449;-58
2021/07/03 00:19:04;;;;;;;32.63;23.10;;;;;;;;;;5033270;28;20476;-59
2021/07/03 00:21:31;;;;;;;26.63;23.63;;;;;;;;;;5032990;28;20503;-59
2021/07/03 00:23:59;;;;;;;29.77;24.53;;;;;;;;;;5035422;28;20445;-58
2021/07/03 00:26:27;;;;;;;28.33;25.37;;;;;;;;;;5037521;28;20452;-59
2021/07/03 00:28:55;;;;;;;30.53;25.70;;;;;;;;;;5037225;28;20473;-59
2021/07/03 00:31:22;;;;;;;29.87;25.33;;;;;;;;;;5037378;28;20499;-58
2021/07/03 00:33:50;;;;;;;29.37;26.20;;;;;;;;;;5037907;28;20530;-59
2021/07/03 00:36:17;;;;;;;29.17;26.13;;;;;;;;;;5037076;28;20518;-58
2021/07/03 00:38:44;;;;;;;30.03;26.93;;;;;;;;;;5036682;28;20973;-58
2021/07/03 00:41:11;;;;;;;30.50;24.77;;;;;;;;;;5036842;28;20502;-58
2021/07/03 00:43:39;;;;;;;34.67;28.20;;;;;;;;;;5037146;28;20490;-58
2021/07/03 00:46:07;;;;;;;30.10;26.73;;;;;;;;;;5036905;28;20452;-58
2021/07/03 00:48:34;;;;;;;29.37;26.33;;;;;;;;;;5036859;28;20877;-58
2021/07/03 00:51:02;;;;;;;30.63;25.53;;;;;;;;;;5036884;28;20800;-58
2021/07/03 00:53:29;;;;;;;29.87;26.47;;;;;;;;;;5036516;28;20472;-59
2021/07/03 00:55:56;;;;;;;30.43;25.50;;;;;;;;;;5036862;28;20448;-58
2021/07/03 00:58:23;;;;;;;30.90;27.50;;;;;;;;;;5036782;28;20464;-58
2021/07/03 01:00:51;;;;;;;32.77;28.30;;;;;;;;;;5036463;28;20457;-58
2021/07/03 01:03:19;;;;;;;29.47;26.30;;;;;;;;;;5036646;28;20437;-58
2021/07/03 01:05:49;;;;;;;34.03;29.50;;;;;;;;;;5036663;28;20437;-58
2021/07/03 01:08:16;;;;;;;32.60;28.30;;;;;;;;;;5036448;28;20468;-59
2021/07/03 01:10:44;;;;;;;32.90;29.40;;;;;;;;;;5036476;28;20449;-58
2021/07/03 01:13:11;;;;;;;32.50;28.83;;;;;;;;;;5036431;28;20547;-59
2021/07/03 01:15:38;;;;;;;35.40;26.80;;;;;;;;;;5036244;28;20933;-58
2021/07/03 01:18:06;;;;;;;34.70;27.23;;;;;;;;;;5036322;28;20530;-60
2021/07/03 01:20:35;;;;;;;30.67;27.53;;;;;;;;;;5037523;28;20866;-58
2021/07/03 01:23:03;;;;;;;31.47;27.27;;;;;;;;;;5037196;28;20445;-59
2021/07/03 01:25:30;;;;;;;29.37;26.37;;;;;;;;;;5035913;28;20503;-58
2021/07/03 01:27:59;;;;;;;31.40;27.10;;;;;;;;;;5036567;28;20453;-58
2021/07/03 01:30:27;;;;;;;30.70;27.40;;;;;;;;;;5036097;28;20507;-58
2021/07/03 01:32:54;;;;;;;30.87;27.60;;;;;;;;;;5036068;28;20847;-58
2021/07/03 01:35:25;;;;;;;30.30;26.80;;;;;;;;;;5035052;28;20937;-58
2021/07/03 01:37:52;;;;;;;32.67;29.00;;;;;;;;;;5036491;28;20436;-58
2021/07/03 01:40:21;;;;;;;35.30;28.37;;;;;;;;;;5060204;22;20996;-63
2021/07/03 01:42:48;;;;;;;33.20;29.27;;;;;;;;;;5035954;28;20445;-63
2021/07/03 01:45:16;;;;;;;38.53;29.07;;;;;;;;;;5035522;28;20937;-62
2021/07/03 01:47:44;;;;;;;35.00;29.30;;;;;;;;;;5035942;28;20453;-63
2021/07/03 01:50:11;;;;;;;34.50;29.83;;;;;;;;;;5035727;28;20559;-63
2021/07/03 01:52:38;;;;;;;39.90;30.53;;;;;;;;;;5035642;28;20453;-62
2021/07/03 01:55:07;;;;;;;41.10;28.60;;;;;;;;;;5035687;28;20449;-63
2021/07/03 01:57:36;;;;;;;35.60;31.50;;;;;;;;;;5035787;28;20794;-63
2021/07/03 02:00:04;;;;;;;35.90;29.90;;;;;;;;;;5035427;28;20473;-63
2021/07/03 02:02:31;;;;;;;34.93;28.90;;;;;;;;;;5035443;28;20445;-63
2021/07/03 02:04:59;;;;;;;34.43;28.30;;;;;;;;;;5035154;28;20515;-63
2021/07/03 02:07:26;;;;;;;34.80;29.90;;;;;;;;;;5035170;28;20453;-63
2021/07/03 02:09:53;;;;;;;38.13;31.93;;;;;;;;;;5035418;28;20461;-64
2021/07/03 02:12:20;;;;;;;37.90;30.27;;;;;;;;;;5035374;28;20461;-64
2021/07/03 02:14:49;;;;;;;34.20;29.40;;;;;;;;;;5034883;28;20476;-64
2021/07/03 02:17:16;;;;;;;34.03;29.10;;;;;;;;;;5035334;28;20445;-64
2021/07/03 02:19:44;;;;;;;33.47;28.60;;;;;;;;;;5035146;28;20534;-63
2021/07/03 02:22:11;;;;;;;36.17;28.57;;;;;;;;;;5035198;28;20448;-64
2021/07/03 02:24:38;;;;;;;32.50;28.97;;;;;;;;;;5034853;28;20441;-64
2021/07/03 02:27:06;;;;;;;33.93;29.13;;;;;;;;;;5034710;28;20502;-64
2021/07/03 02:29:33;;;;;;;33.20;29.30;;;;;;;;;;5034920;28;20532;-64
2021/07/03 02:32:02;;;;;;;34.57;29.60;;;;;;;;;;5034661;28;20445;-63
2021/07/03 02:34:29;;;;;;;36.83;30.57;;;;;;;;;;5034885;28;20473;-63
2021/07/03 02:36:57;;;;;;;38.33;30.20;;;;;;;;;;5034881;28;20449;-63
2021/07/03 02:39:24;;;;;;;38.10;30.03;;;;;;;;;;5034613;28;20505;-63
2021/07/03 02:41:51;;;;;;;38.53;31.13;;;;;;;;;;5034844;28;20449;-63
2021/07/03 02:44:18;;;;;;;39.50;32.37;;;;;;;;;;5034774;28;20460;-63
2021/07/03 02:46:46;;;;;;;35.73;31.83;;;;;;;;;;5033371;28;20952;-63
2021/07/03 02:49:14;;;;;;;36.17;30.20;;;;;;;;;;5034251;28;20465;-63
2021/07/03 02:51:41;;;;;;;36.97;30.10;;;;;;;;;;5034353;28;20929;-63
2021/07/03 02:54:09;;;;;;;36.40;29.10;;;;;;;;;;5034439;28;20526;-63
2021/07/03 02:56:36;;;;;;;35.93;28.10;;;;;;;;;;5034448;28;20475;-63
2021/07/03 02:59:03;;;;;;;35.23;28.23;;;;;;;;;;5034283;28;20465;-63
2021/07/03 03:01:31;;;;;;;34.63;29.43;;;;;;;;;;5035208;28;20461;-63
2021/07/03 03:03:58;;;;;;;34.30;29.60;;;;;;;;;;5034084;28;20998;-63
2021/07/03 03:06:27;;;;;;;40.00;31.27;;;;;;;;;;5034394;28;20457;-63
2021/07/03 03:08:54;;;;;;;33.53;29.10;;;;;;;;;;5034210;28;20817;-63
2021/07/03 03:11:21;;;;;;;39.30;31.30;;;;;;;;;;5034221;28;20453;-63
2021/07/03 03:13:48;;;;;;;34.80;31.03;;;;;;;;;;5034143;28;20554;-64
2021/07/03 03:16:16;;;;;;;40.13;31.33;;;;;;;;;;5034182;28;20507;-65
2021/07/03 03:18:43;;;;;;;39.20;31.10;;;;;;;;;;5034025;28;20469;-64
2021/07/03 03:21:10;;;;;;;39.73;31.40;;;;;;;;;;5034104;28;20528;-64
2021/07/03 03:23:39;;;;;;;37.00;30.10;;;;;;;;;;5033712;28;20449;-63
2021/07/03 03:26:06;;;;;;;35.40;29.63;;;;;;;;;;5033688;28;20877;-64
2021/07/03 03:28:33;;;;;;;33.73;30.10;;;;;;;;;;5033565;28;20925;-64
2021/07/03 03:31:01;;;;;;;34.37;29.00;;;;;;;;;;5033963;28;20449;-63
2021/07/03 03:33:28;;;;;;;36.53;30.23;;;;;;;;;;5033430;28;20843;-63
2021/07/03 03:35:55;;;;;;;36.63;29.70;;;;;;;;;;5033664;28;20501;-63
2021/07/03 03:38:22;;;;;;;32.17;28.27;;;;;;;;;;5033876;28;20457;-63
2021/07/03 03:40:51;;;;;;;33.70;28.50;;;;;;;;;;5033553;28;20523;-64
2021/07/03 03:43:18;;;;;;;31.43;27.77;;;;;;;;;;5033791;28;20449;-62
2021/07/03 03:45:46;;;;;;;33.60;27.77;;;;;;;;;;5033947;28;20450;-64
2021/07/03 03:48:13;;;;;;;33.07;28.00;;;;;;;;;;5033825;28;20868;-64
2021/07/03 03:50:40;;;;;;;32.37;27.00;;;;;;;;;;5033756;28;20465;-64
2021/07/03 03:53:07;;;;;;;33.37;27.70;;;;;;;;;;5033746;28;20449;-62
2021/07/03 03:55:35;;;;;;;32.63;26.40;;;;;;;;;;5033427;28;20489;-63
2021/07/03 03:58:03;;;;;;;32.27;27.60;;;;;;;;;;5033148;28;20467;-63
2021/07/03 04:00:31;;;;;;;30.07;26.83;;;;;;;;;;5033013;28;20477;-63
2021/07/03 04:02:58;;;;;;;28.80;24.20;;;;;;;;;;5033353;28;20448;-63
2021/07/03 04:08:19;;;;;;;25.50;21.43;;;;;;;;;;5091585;27;20960;-64
2021/07/03 04:10:46;;;;;;;25.33;22.67;;;;;;;;;;5091011;28;20508;-63
2021/07/03 04:13:14;;;;;;;24.87;22.17;;;;;;;;;;5091276;28;20977;-63
2021/07/03 04:15:41;;;;;;;21.97;19.70;;;;;;;;;;5091039;28;20503;-62
2021/07/03 04:18:08;;;;;;;23.53;21.03;;;;;;;;;;5090902;28;20447;-64
2021/07/03 04:20:35;;;;;;;21.67;19.40;;;;;;;;;;5090363;28;20527;-64
2021/07/03 04:23:03;;;;;;;21.60;19.57;;;;;;;;;;5090322;28;20991;-64
2021/07/03 04:25:31;;;;;;;20.93;18.80;;;;;;;;;;5090347;28;20439;-64
2021/07/03 04:28:00;;;;;;;20.70;18.43;;;;;;;;;;5091156;28;20619;-64
2021/07/03 04:30:27;;;;;;;19.50;17.80;;;;;;;;;;5090421;28;20498;-64
2021/07/03 04:32:54;;;;;;;23.53;17.43;;;;;;;;;;5091642;28;20442;-63
2021/07/03 04:35:22;;;;;;;24.33;18.10;;;;;;;;;;5090630;28;20472;-63
2021/07/03 04:37:49;;;;;;;19.67;17.77;;;;;;;;;;5090358;28;20446;-62
2021/07/03 04:40:16;;;;;;;19.10;17.20;;;;;;;;;;5090444;28;20470;-63
2021/07/03 04:42:45;;;;;;;19.97;16.87;;;;;;;;;;5090104;28;20455;-63
2021/07/03 04:45:12;;;;;;;19.33;16.90;;;;;;;;;;5090124;28;20857;-63
2021/07/03 04:47:39;;;;;;;18.67;16.87;;;;;;;;;;5090220;28;20470;-63
2021/07/03 04:50:08;;;;;;;21.13;17.07;;;;;;;;;;5090272;28;20463;-62
2021/07/03 04:52:36;;;;;;;20.53;16.47;;;;;;;;;;5090126;28;20519;-62
2021/07/03 04:55:03;;;;;;;19.20;16.70;;;;;;;;;;5090129;28;20452;-62
2021/07/03 04:57:30;;;;;;;20.13;15.60;;;;;;;;;;5090024;28;20496;-62
2021/07/03 04:59:59;;;;;;;21.63;19.40;;;;;;;;;;5089938;28;20472;-61
2021/07/03 05:02:26;;;;;;;17.43;15.63;;;;;;;;;;5089988;28;20448;-62
2021/07/03 05:04:53;;;;;;;18.70;16.90;;;;;;;;;;5090039;28;20877;-62
2021/07/03 05:07:21;;;;;;;18.73;16.90;;;;;;;;;;5089418;28;20491;-62
2021/07/03 05:09:48;;;;;;;17.83;16.03;;;;;;;;;;5089473;28;20514;-62
2021/07/03 05:12:15;;;;;;;16.93;15.43;;;;;;;;;;5089778;28;20497;-62
2021/07/03 05:14:43;;;;;;;16.20;14.63;;;;;;;;;;5089780;28;20499;-62
2021/07/03 05:17:12;;;;;;;15.67;13.83;;;;;;;;;;5089718;28;20545;-62
2021/07/03 05:19:39;;;;;;;16.67;14.97;;;;;;;;;;5075739;28;20513;-62
2021/07/03 05:22:06;;;;;;;16.80;15.20;;;;;;;;;;5076088;28;20451;-62
2021/07/03 05:24:34;;;;;;;15.73;14.03;;;;;;;;;;5076269;28;20854;-62
2021/07/03 05:27:01;;;;;;;17.50;15.63;;;;;;;;;;5076006;28;20468;-62
2021/07/03 05:29:28;;;;;;;18.03;14.43;;;;;;;;;;5076384;28;20464;-62
2021/07/03 05:31:55;;;;;;;19.07;17.20;;;;;;;;;;5076676;28;20538;-62
2021/07/03 05:34:24;;;;;;;15.87;14.30;;;;;;;;;;5076181;28;20508;-63
2021/07/03 05:36:51;;;;;;;16.10;14.60;;;;;;;;;;5076271;28;20450;-63
2021/07/03 05:39:18;;;;;;;16.53;13.70;;;;;;;;;;5075497;28;20479;-63
2021/07/03 05:41:46;;;;;;;15.63;14.03;;;;;;;;;;5075693;28;20443;-63
2021/07/03 05:44:13;;;;;;;16.30;13.87;;;;;;;;;;5075871;28;20448;-64
2021/07/03 05:46:40;;;;;;;16.50;13.73;;;;;;;;;;5076369;28;20864;-63
2021/07/03 05:49:08;;;;;;;14.60;13.27;;;;;;;;;;5076214;28;20465;-63
2021/07/03 05:51:37;;;;;;;17.67;13.50;;;;;;;;;;5076341;28;20937;-63
2021/07/03 05:54:04;;;;;;;15.23;13.10;;;;;;;;;;5075683;28;20449;-64
2021/07/03 05:56:32;;;;;;;14.93;13.40;;;;;;;;;;5075748;28;20517;-64
2021/07/03 05:59:01;;;;;;;14.87;13.57;;;;;;;;;;5075677;28;21051;-64
2021/07/03 06:01:28;;;;;;;14.67;13.47;;;;;;;;;;5075504;28;20958;-63
2021/07/03 06:03:55;;;;;;;16.00;14.10;;;;;;;;;;5075465;28;20998;-64
2021/07/03 06:06:24;;;;;;;14.40;13.30;;;;;;;;;;5076043;28;20454;-64
2021/07/03 06:08:52;;;;;;;14.57;13.10;;;;;;;;;;5075462;28;20518;-62
2021/07/03 06:11:19;;;;;;;15.27;13.77;;;;;;;;;;5075214;28;20453;-62
2021/07/03 06:13:47;;;;;;;14.50;13.03;;;;;;;;;;5075074;28;20447;-63
2021/07/03 06:16:14;;;;;;;15.90;13.57;;;;;;;;;;5075214;28;20455;-62
2021/07/03 06:18:41;;;;;;;13.93;12.53;;;;;;;;;;5074552;28;20507;-63
2021/07/03 06:21:08;;;;;;;14.73;13.33;;;;;;;;;;5074964;28;20452;-64
2021/07/03 06:23:36;;;;;;;15.63;14.13;;;;;;;;;;5074923;28;20447;-62
2021/07/03 06:26:05;;;;;;;14.03;12.70;;;;;;;;;;5074609;28;20444;-62
2021/07/03 06:28:32;;;;;;;14.33;12.93;;;;;;;;;;5074921;28;20973;-63
2021/07/03 06:31:01;;;;;;;14.47;12.97;;;;;;;;;;5074584;28;20446;-64
2021/07/03 06:33:28;;;;;;;14.30;12.93;;;;;;;;;;5075933;28;20484;-64
2021/07/03 06:35:55;;;;;;;15.70;13.27;;;;;;;;;;5076074;28;20441;-64
2021/07/03 06:38:23;;;;;;;16.03;14.33;;;;;;;;;;5076859;28;20785;-63
2021/07/03 06:40:50;;;;;;;16.60;14.90;;;;;;;;;;5075821;28;20857;-63
2021/07/03 06:43:18;;;;;;;13.80;12.37;;;;;;;;;;5076406;28;20517;-64
2021/07/03 06:45:46;;;;;;;17.23;15.57;;;;;;;;;;5076107;28;20481;-64
2021/07/03 06:48:13;;;;;;;18.00;16.20;;;;;;;;;;5075891;28;20539;-62
2021/07/03 06:50:40;;;;;;;17.47;15.77;;;;;;;;;;5074998;28;20465;-63
2021/07/03 06:53:08;;;;;;;19.20;16.53;;;;;;;;;;5075330;28;20843;-62
2021/07/03 06:55:35;;;;;;;16.20;14.63;;;;;;;;;;5075250;28;20475;-62
2021/07/03 06:58:02;;;;;;;18.13;16.20;;;;;;;;;;5075082;28;20500;-62
2021/07/03 07:00:31;;;;;;;16.53;14.50;;;;;;;;;;5075865;28;20636;-64
2021/07/03 07:02:58;;;;;;;17.30;15.50;;;;;;;;;;5076419;28;20865;-64
2021/07/03 07:05:25;;;;;;;15.37;13.83;;;;;;;;;;5075813;28;20448;-63
2021/07/03 07:07:53;;;;;;;15.27;13.80;;;;;;;;;;5074082;28;20494;-63
2021/07/03 07:10:20;;;;;;;17.03;15.40;;;;;;;;;;5074094;28;20982;-63
2021/07/03 07:12:47;;;;;;;18.80;16.90;;;;;;;;;;5073667;28;20452;-62
2021/07/03 07:15:16;;;;;;;18.13;16.33;;;;;;;;;;5073648;28;20523;-62
2021/07/03 07:17:45;;;;;;;17.63;15.77;;;;;;;;;;5073901;28;20936;-63
2021/07/03 07:20:13;;;;;;;16.63;14.90;;;;;;;;;;5073604;28;20468;-62
2021/07/03 07:22:40;;;;;;;18.20;15.97;;;;;;;;;;5073817;28;20945;-63
2021/07/03 07:25:08;;;;;;;17.37;15.53;;;;;;;;;;5073834;28;20852;-63
2021/07/03 07:27:35;;;;;;;20.43;17.87;;;;;;;;;;5073963;28;20550;-63
2021/07/03 07:30:02;;;;;;;17.60;15.60;;;;;;;;;;5073552;28;20469;-63
2021/07/03 07:32:29;;;;;;;18.87;16.93;;;;;;;;;;5073680;28;20453;-63
2021/07/03 07:34:59;;;;;;;18.10;16.20;;;;;;;;;;5073274;28;20937;-63
2021/07/03 07:37:26;;;;;;;20.83;17.50;;;;;;;;;;5073338;28;21013;-63
2021/07/03 07:39:53;;;;;;;18.33;16.43;;;;;;;;;;5073925;28;20469;-63
2021/07/03 07:42:21;;;;;;;19.00;16.70;;;;;;;;;;5074775;28;20606;-63
2021/07/03 07:44:48;;;;;;;16.87;13.50;;;;;;;;;;5073113;28;20863;-62
2021/07/03 07:47:15;;;;;;;18.87;14.83;;;;;;;;;;5073138;28;20942;-63
2021/07/03 07:49:42;;;;;;;20.07;15.00;;;;;;;;;;5073082;28;20515;-64
2021/07/03 07:52:11;;;;;;;16.30;14.70;;;;;;;;;;5073290;28;20454;-63
2021/07/03 07:54:38;;;;;;;17.27;15.47;;;;;;;;;;5073508;28;20451;-62
2021/07/03 07:57:06;;;;;;;17.50;14.10;;;;;;;;;;5073333;28;20885;-63
2021/07/03 07:59:33;;;;;;;15.00;13.40;;;;;;;;;;5073027;28;20545;-63
2021/07/03 08:02:00;;;;;;;14.50;13.00;;;;;;;;;;5072746;28;20934;-63
2021/07/03 08:04:27;;;;;;;12.97;11.50;;;;;;;;;;5073097;28;20443;-64
2021/07/03 08:06:54;;;;;;;13.37;11.97;;;;;;;;;;5072894;28;20458;-62
2021/07/03 08:09:23;;;;;;;14.63;13.23;;;;;;;;;;5073000;28;20570;-63
2021/07/03 08:11:51;;;;;;;16.23;13.40;;;;;;;;;;5073732;28;20443;-63
2021/07/03 08:14:18;;;;;;;14.40;12.90;;;;;;;;;;5074253;28;20938;-62
2021/07/03 08:16:45;;;;;;;16.80;12.53;;;;;;;;;;5074994;28;20454;-63
2021/07/03 08:19:13;;;;;;;16.97;13.00;;;;;;;;;;5074452;28;20465;-64
2021/07/03 08:21:40;;;;;;;15.03;13.43;;;;;;;;;;5074984;28;20580;-64
2021/07/03 08:24:07;;;;;;;16.00;12.90;;;;;;;;;;5074484;28;20517;-64
2021/07/03 08:26:36;;;;;;;12.90;11.60;;;;;;;;;;5074151;28;20858;-64
2021/07/03 08:29:03;;;;;;;13.17;11.80;;;;;;;;;;5073760;28;20574;-63
2021/07/03 08:31:31;;;;;;;14.50;12.90;;;;;;;;;;5073542;28;20445;-64
2021/07/03 08:33:58;;;;;;;12.90;10.90;;;;;;;;;;5073495;28;20458;-64
2021/07/03 08:36:26;;;;;;;12.53;11.20;;;;;;;;;;5073207;28;20449;-64
2021/07/03 08:38:53;;;;;;;12.30;10.23;;;;;;;;;;5072403;28;20463;-62
2021/07/03 08:41:20;;;;;;;14.17;11.93;;;;;;;;;;5072755;28;20443;-63
2021/07/03 08:43:50;;;;;;;10.80;9.70;;;;;;;;;;5072451;28;20446;-64
2021/07/03 08:46:18;;;;;;;11.80;9.20;;;;;;;;;;5073099;28;20809;-63
2021/07/03 08:48:45;;;;;;;12.50;10.73;;;;;;;;;;5072721;28;20536;-65
2021/07/03 08:51:12;;;;;;;12.70;11.40;;;;;;;;;;5072389;28;20458;-63
2021/07/03 08:53:40;;;;;;;12.87;11.57;;;;;;;;;;5073938;28;20444;-65
2021/07/03 08:56:07;;;;;;;11.47;9.90;;;;;;;;;;5076292;28;20472;-65
2021/07/03 08:58:34;;;;;;;10.23;8.70;;;;;;;;;;5075839;28;20812;-64
2021/07/03 09:01:04;;;;;;;11.93;8.40;;;;;;;;;;5076059;28;20441;-64
2021/07/03 09:03:31;;;;;;;12.00;9.47;;;;;;;;;;5075816;28;20934;-64
2021/07/03 09:05:59;;;;;;;12.33;11.13;;;;;;;;;;5076137;28;20473;-63
2021/07/03 09:08:27;;;;;;;11.60;9.90;;;;;;;;;;5075729;28;20516;-64
2021/07/03 09:11:01;;;;;;;10.57;9.23;;;;;;;;;;5076025;28;20519;-64
2021/07/03 09:13:29;;;;;;;10.73;9.00;;;;;;;;;;5075930;28;20438;-64
2021/07/03 09:15:56;;;;;;;9.40;8.40;;;;;;;;;;5075535;28;20435;-63
2021/07/03 09:18:27;;;;;;;11.67;10.07;;;;;;;;;;5075960;28;20447;-64
2021/07/03 09:20:55;;;;;;;9.90;8.90;;;;;;;;;;5076074;28;20431;-63
2021/07/03 09:23:24;;;;;;;9.57;8.63;;;;;;;;;;5075353;28;20451;-63
2021/07/03 09:25:53;;;;;;;10.67;9.57;;;;;;;;;;5075325;28;20452;-62
2021/07/03 09:28:21;;;;;;;10.83;9.73;;;;;;;;;;5075258;28;20532;-64
2021/07/03 09:30:50;;;;;;;8.87;7.63;;;;;;;;;;5075661;28;20449;-65
2021/07/03 09:33:18;;;;;;;10.50;8.67;;;;;;;;;;5075720;28;20448;-63
2021/07/03 09:35:54;;;;;;;9.77;7.33;;;;;;;;;;5075697;28;20447;-62
2021/07/03 09:38:28;;;;;;;8.97;8.00;;;;;;;;;;5075848;28;20489;-64
2021/07/03 09:41:05;;;;;;;9.03;7.63;;;;;;;;;;5075581;28;20432;-62
2021/07/03 09:43:32;;;;;;;9.20;8.30;;;;;;;;;;5075692;28;20484;-63
2021/07/03 09:45:59;;;;;;;10.47;9.47;;;;;;;;;;5075625;28;20454;-63
2021/07/03 09:48:27;;;;;;;10.93;9.13;;;;;;;;;;5075359;28;20870;-62
2021/07/03 09:50:55;;;;;;;9.47;8.40;;;;;;;;;;5075214;28;20548;-62
2021/07/03 09:53:23;;;;;;;11.23;8.87;;;;;;;;;;5075151;28;20515;-64
2021/07/03 09:55:50;;;;;;;9.90;8.53;;;;;;;;;;5075728;28;20449;-64
2021/07/03 09:58:18;;;;;;;8.70;7.80;;;;;;;;;;5074981;28;20440;-63
2021/07/03 10:00:45;;;;;;;8.63;7.73;;;;;;;;;;5075052;28;20528;-64
2021/07/03 10:03:12;;;;;;;11.37;7.63;;;;;;;;;;5075242;28;20459;-63
2021/07/03 10:05:41;;;;;;;9.07;6.73;;;;;;;;;;5074710;28;20505;-63
2021/07/03 10:08:11;;;;;;;11.70;7.50;;;;;;;;;;5074840;28;20584;-63
2021/07/03 10:10:40;;;;;;;8.40;7.60;;;;;;;;;;5075160;28;20858;-63
2021/07/03 10:13:09;;;;;;;8.10;7.30;;;;;;;;;;5074488;28;20948;-63
2021/07/03 10:15:37;;;;;;;8.60;7.70;;;;;;;;;;5074568;28;20964;-64
2021/07/03 10:18:13;;;;;;;10.37;8.37;;;;;;;;;;5075218;28;20498;-64
2021/07/03 10:20:41;;;;;;;7.40;6.77;;;;;;;;;;5074840;28;20829;-64
2021/07/03 10:23:10;;;;;;;8.20;7.17;;;;;;;;;;5074798;28;20451;-64
2021/07/03 10:25:38;;;;;;;9.47;8.47;;;;;;;;;;5074839;28;20471;-64
2021/07/03 10:28:07;;;;;;;9.50;8.60;;;;;;;;;;5074305;28;20494;-63
2021/07/03 10:30:34;;;;;;;10.10;9.13;;;;;;;;;;5074561;28;20887;-63
2021/07/03 10:33:02;;;;;;;12.53;8.40;;;;;;;;;;5074591;28;20457;-65
2021/07/03 10:35:40;;;;;;;9.83;8.70;;;;;;;;;;5074106;28;20993;-63
2021/07/03 10:38:17;;;;;;;12.10;9.00;;;;;;;;;;5074452;28;20422;-63
2021/07/03 10:40:44;;;;;;;10.70;8.67;;;;;;;;;;5074318;28;20469;-63
2021/07/03 10:43:14;;;;;;;10.97;8.83;;;;;;;;;;5074104;28;20452;-62
2021/07/03 10:45:45;;;;;;;11.37;8.70;;;;;;;;;;5073927;28;21018;-62
2021/07/03 10:48:15;;;;;;;12.97;9.60;;;;;;;;;;5073776;28;20517;-63
2021/07/03 10:50:42;;;;;;;9.70;8.27;;;;;;;;;;5073536;28;21069;-63
2021/07/03 10:53:20;;;;;;;7.93;7.13;;;;;;;;;;5073766;28;20444;-63
2021/07/03 10:55:49;;;;;;;8.00;7.20;;;;;;;;;;5073671;28;20499;-63
2021/07/03 10:58:17;;;;;;;8.63;7.53;;;;;;;;;;5074187;28;20444;-63
2021/07/03 11:00:47;;;;;;;8.63;7.60;;;;;;;;;;5073845;28;20541;-63
2021/07/03 11:03:15;;;;;;;7.30;6.70;;;;;;;;;;5074160;28;20839;-63
2021/07/03 11:05:42;;;;;;;7.03;6.33;;;;;;;;;;5073582;28;20452;-64
2021/07/03 11:08:11;;;;;;;8.60;7.57;;;;;;;;;;5073225;28;20460;-64
2021/07/03 11:10:39;;;;;;;7.73;7.03;;;;;;;;;;5073698;28;20468;-64
2021/07/03 11:13:08;;;;;;;9.67;8.57;;;;;;;;;;5073448;28;20443;-62
2021/07/03 11:15:36;;;;;;;8.33;7.53;;;;;;;;;;5073305;28;20443;-64
2021/07/03 11:18:04;;;;;;;9.80;8.80;;;;;;;;;;5073167;28;20449;-63
2021/07/03 11:20:32;;;;;;;9.27;7.77;;;;;;;;;;5073488;28;20882;-64
2021/07/03 11:22:59;;;;;;;9.67;8.70;;;;;;;;;;5073483;28;20449;-64
2021/07/03 11:25:28;;;;;;;10.00;9.00;;;;;;;;;;5072892;28;20496;-61
2021/07/03 11:28:04;;;;;;;7.90;6.83;;;;;;;;;;5073469;28;20446;-63
2021/07/03 11:30:33;;;;;;;9.70;7.70;;;;;;;;;;5072971;28;20975;-64
2021/07/03 11:33:01;;;;;;;10.10;8.27;;;;;;;;;;5073230;28;20444;-64
2021/07/03 11:35:29;;;;;;;7.60;6.80;;;;;;;;;;5073219;28;20435;-64
2021/07/03 11:37:57;;;;;;;8.90;6.87;;;;;;;;;;5073265;28;20498;-65
2021/07/03 11:40:25;;;;;;;6.60;5.43;;;;;;;;;;5073069;28;20469;-63
2021/07/03 11:42:53;;;;;;;7.50;6.70;;;;;;;;;;5073213;28;20811;-63
2021/07/03 11:45:21;;;;;;;8.00;7.20;;;;;;;;;;5072851;28;20442;-63
2021/07/03 11:47:51;;;;;;;8.03;7.23;;;;;;;;;;5072641;28;20491;-64
2021/07/03 11:50:29;;;;;;;6.40;5.80;;;;;;;;;;5072884;28;20508;-63
2021/07/03 11:52:58;;;;;;;6.97;6.27;;;;;;;;;;5073043;28;20489;-64
2021/07/03 11:55:27;;;;;;;7.93;6.20;;;;;;;;;;5072646;28;20814;-65
2021/07/03 11:57:55;;;;;;;6.97;6.37;;;;;;;;;;5072923;28;20851;-63
2021/07/03 12:00:23;;;;;;;6.20;5.60;;;;;;;;;;5072798;28;20467;-63
2021/07/03 12:02:52;;;;;;;5.93;5.43;;;;;;;;;;5072698;28;20455;-64
2021/07/03 12:05:20;;;;;;;7.40;6.73;;;;;;;;;;5072803;28;20445;-63
2021/07/03 12:07:56;;;;;;;8.23;6.07;;;;;;;;;;5072507;28;20456;-63
2021/07/03 12:10:32;;;;;;;8.17;7.37;;;;;;;;;;5072583;28;20556;-62
2021/07/03 12:12:59;;;;;;;7.30;6.70;;;;;;;;;;5072683;28;20484;-61
2021/07/03 12:15:27;;;;;;;6.30;5.70;;;;;;;;;;5072527;28;20458;-63
2021/07/03 12:17:57;;;;;;;7.20;5.80;;;;;;;;;;5072491;28;20515;-63
2021/07/03 12:20:25;;;;;;;5.93;5.43;;;;;;;;;;5072804;28;20578;-64
2021/07/03 12:22:57;;;;;;;5.90;5.40;;;;;;;;;;5073132;28;20538;-62
2021/07/03 12:25:24;;;;;;;5.30;4.83;;;;;;;;;;5072634;28;20456;-63
2021/07/03 12:27:54;;;;;;;5.67;5.17;;;;;;;;;;5072982;28;20455;-63
2021/07/03 12:30:22;;;;;;;6.90;6.00;;;;;;;;;;5076574;28;20508;-62
2021/07/03 12:32:49;;;;;;;6.77;6.07;;;;;;;;;;5076557;28;20950;-64
2021/07/03 12:35:18;;;;;;;6.20;5.60;;;;;;;;;;5076639;28;20443;-59
2021/07/03 12:37:48;;;;;;;6.10;5.60;;;;;;;;;;5076839;28;20458;-62
2021/07/03 12:40:17;;;;;;;5.70;5.13;;;;;;;;;;5077273;28;20473;-63
2021/07/03 12:42:46;;;;;;;5.77;5.07;;;;;;;;;;5077067;28;20460;-64
2021/07/03 12:45:13;;;;;;;4.77;4.37;;;;;;;;;;5076749;28;20545;-61
2021/07/03 12:47:41;;;;;;;5.93;5.43;;;;;;;;;;5077797;28;20452;-62
2021/07/03 12:50:09;;;;;;;7.93;5.40;;;;;;;;;;5076937;28;20486;-62
2021/07/03 12:52:39;;;;;;;8.37;5.17;;;;;;;;;;5077346;28;20817;-62
2021/07/03 12:55:08;;;;;;;6.67;6.07;;;;;;;;;;5077234;28;20851;-63
2021/07/03 12:57:38;;;;;;;6.13;5.53;;;;;;;;;;5077017;28;20449;-62
2021/07/03 13:00:06;;;;;;;5.57;5.07;;;;;;;;;;5076924;28;20547;-62
2021/07/03 13:02:34;;;;;;;5.73;5.23;;;;;;;;;;5077244;28;20446;-62
2021/07/03 13:05:02;;;;;;;6.40;5.90;;;;;;;;;;5078001;28;20477;-61
2021/07/03 13:07:29;;;;;;;6.93;5.63;;;;;;;;;;5076310;28;20552;-62
2021/07/03 13:09:57;;;;;;;6.67;6.07;;;;;;;;;;5076947;28;20827;-62
2021/07/03 13:12:25;;;;;;;6.87;6.27;;;;;;;;;;5076756;28;20867;-61
2021/07/03 13:14:52;;;;;;;5.30;4.80;;;;;;;;;;5076043;28;20592;-61
2021/07/03 13:17:19;;;;;;;5.90;5.30;;;;;;;;;;5075838;28;20999;-63
2021/07/03 13:19:46;;;;;;;5.57;5.13;;;;;;;;;;5075552;28;20513;-61
2021/07/03 13:22:14;;;;;;;6.03;5.40;;;;;;;;;;5075940;28;20440;-61
2021/07/03 13:24:41;;;;;;;6.20;5.60;;;;;;;;;;5075805;28;20451;-61
2021/07/03 13:27:10;;;;;;;5.77;5.13;;;;;;;;;;5075822;28;20477;-61
2021/07/03 13:29:37;;;;;;;6.10;5.60;;;;;;;;;;5078842;28;20488;-62
2021/07/03 13:32:07;;;;;;;6.80;6.07;;;;;;;;;;5075546;28;20474;-61
2021/07/03 13:34:35;;;;;;;7.50;6.70;;;;;;;;;;5075366;28;20559;-61
2021/07/03 13:37:02;;;;;;;5.00;4.60;;;;;;;;;;5075871;28;20447;-62
2021/07/03 13:39:29;;;;;;;7.80;5.40;;;;;;;;;;5074761;28;20971;-61
2021/07/03 13:41:56;;;;;;;6.07;5.57;;;;;;;;;;5076637;28;20467;-61
2021/07/03 13:44:25;;;;;;;6.63;6.03;;;;;;;;;;5075453;28;20448;-59
2021/07/03 13:46:52;;;;;;;5.57;5.07;;;;;;;;;;5075299;28;20450;-62
2021/07/03 13:49:20;;;;;;;7.37;5.90;;;;;;;;;;5075370;28;20486;-62
2021/07/03 13:51:47;;;;;;;7.20;5.20;;;;;;;;;;5075033;28;20459;-62
2021/07/03 13:54:14;;;;;;;6.40;5.90;;;;;;;;;;5075005;28;20832;-61
2021/07/03 13:56:41;;;;;;;7.97;7.27;;;;;;;;;;5075057;28;20446;-61
2021/07/03 13:59:09;;;;;;;6.80;6.10;;;;;;;;;;5074854;28;20465;-62
2021/07/03 14:01:37;;;;;;;5.37;4.87;;;;;;;;;;5075049;28;20480;-60
2021/07/03 14:04:05;;;;;;;6.23;5.63;;;;;;;;;;5075192;28;20448;-62
2021/07/03 14:06:32;;;;;;;9.53;6.07;;;;;;;;;;5075055;28;20452;-61
2021/07/03 14:09:00;;;;;;;6.80;5.43;;;;;;;;;;5074946;28;20469;-61
2021/07/03 14:11:27;;;;;;;6.37;5.70;;;;;;;;;;5074845;28;20456;-61
2021/07/03 14:13:55;;;;;;;6.23;5.63;;;;;;;;;;5074931;28;20507;-61
2021/07/03 14:16:24;;;;;;;6.10;5.50;;;;;;;;;;5074717;28;20444;-60
2021/07/03 14:18:53;;;;;;;5.60;5.10;;;;;;;;;;5074992;28;20558;-61
2021/07/03 14:21:20;;;;;;;6.70;6.10;;;;;;;;;;5074547;28;20454;-63
2021/07/03 14:23:48;;;;;;;5.93;5.43;;;;;;;;;;5074602;28;20443;-61
2021/07/03 14:26:15;;;;;;;5.80;5.30;;;;;;;;;;5074523;28;21063;-64
2021/07/03 14:28:43;;;;;;;6.47;5.50;;;;;;;;;;5074445;28;20499;-62
2021/07/03 14:31:11;;;;;;;5.10;4.60;;;;;;;;;;5074289;28;20479;-61
2021/07/03 14:33:38;;;;;;;5.97;5.33;;;;;;;;;;5074436;28;20453;-61